Time;durP1;ratioP1;P1;durP2;ratioP2;P2;SDS_P1;SDS_P2;PMS_P1;PMS_P2;Temp;Humidity;BMP_temperature;BMP_pressure;BME280_temperature;BME280_humidity;BME280_pressure;Samples;Min_cycle;Max_cycle;Signal;HPM_P1;HPM_P2
2023/09/08 00:02:00;;;;;;;16.55;11.95;;;;;;;-146.27;80.36;80930.06;5046044;28;20024;-68
2023/09/08 00:04:26;;;;;;;17.98;12.75;;;;;;;-146.27;80.65;80869.84;5043976;28;20029;-67
2023/09/08 00:06:51;;;;;;;21.02;13.60;;;;;;;-146.27;81.05;80901.97;5048137;28;20043;-68
2023/09/08 00:09:17;;;;;;;15.13;11.48;;;;;;;-146.27;81.39;80942.13;5037120;28;20025;-68
2023/09/08 00:11:42;;;;;;;13.88;11.52;;;;;;;-146.27;81.30;80948.16;5038081;28;20051;-67
2023/09/08 00:14:08;;;;;;;15.65;12.38;;;;;;;-146.27;81.71;80970.25;5045250;28;20132;-67
2023/09/08 00:16:33;;;;;;;16.90;11.70;;;;;;;-146.27;81.73;80954.19;5035182;28;20029;-66
2023/09/08 00:18:58;;;;;;;15.15;11.63;;;;;;;-146.27;82.03;80928.06;5038459;28;20111;-67
2023/09/08 00:21:27;;;;;;;16.75;12.25;;;;;;;-146.27;81.71;80948.16;5038473;28;20089;-67
2023/09/08 00:23:53;;;;;;;22.67;12.32;;;;;;;-146.27;81.25;80942.13;5041362;28;20021;-67
2023/09/08 00:26:19;;;;;;;16.08;11.57;;;;;;;-146.27;81.29;80936.09;5042964;28;20039;-67
2023/09/08 00:28:44;;;;;;;18.67;11.57;;;;;;;-146.27;81.38;80954.19;5046038;28;20029;-67
2023/09/08 00:31:09;;;;;;;19.23;12.57;;;;;;;-146.27;81.68;80934.09;5048642;28;20098;-68
2023/09/08 00:33:35;;;;;;;17.27;12.75;;;;;;;-146.27;81.74;80974.25;5037407;28;20029;-67
2023/09/08 00:36:00;;;;;;;17.52;11.77;;;;;;;-146.27;81.59;80982.28;5032003;28;20435;-68
2023/09/08 00:38:26;;;;;;;14.90;12.05;;;;;;;-146.27;81.48;80986.31;5039555;28;20024;-67
2023/09/08 00:40:51;;;;;;;16.50;11.95;;;;;;;-146.27;81.69;81022.44;5045818;28;20051;-67
2023/09/08 00:43:17;;;;;;;15.73;12.02;;;;;;;-146.27;81.71;81018.44;5036934;28;20037;-67
2023/09/08 00:45:44;;;;;;;14.00;11.50;;;;;;;-146.27;82.18;81056.59;5046546;28;20040;-67
2023/09/08 00:48:10;;;;;;;15.15;12.73;;;;;;;-146.27;82.27;81094.75;5040357;28;20028;-68
2023/09/08 00:50:36;;;;;;;17.45;11.93;;;;;;;-146.27;82.03;81076.66;5045059;28;20025;-67
2023/09/08 00:53:06;;;;;;;12.38;11.05;;;;;;;-146.27;82.22;81062.59;5045133;28;20041;-67
2023/09/08 00:55:31;;;;;;;17.10;10.40;;;;;;;-146.27;81.73;81046.53;5041077;28;20494;-67
2023/09/08 00:57:58;;;;;;;14.73;11.40;;;;;;;-146.27;82.38;81042.53;5044867;28;20025;-67
2023/09/08 01:00:24;;;;;;;18.05;11.43;;;;;;;-146.27;81.94;81062.59;5032979;28;20025;-67
2023/09/08 01:02:49;;;;;;;15.05;11.75;;;;;;;-146.27;81.67;81048.56;5036532;28;20499;-67
2023/09/08 01:05:16;;;;;;;15.15;12.07;;;;;;;-146.27;82.02;81078.69;5038984;28;20022;-66
2023/09/08 01:07:42;;;;;;;17.60;13.13;;;;;;;-146.27;81.81;81050.56;5036737;28;20401;-66
2023/09/08 01:10:08;;;;;;;15.13;11.10;;;;;;;-146.27;81.26;81058.59;5041256;28;20024;-66
2023/09/08 01:12:34;;;;;;;16.40;12.35;;;;;;;-146.27;81.93;81040.53;5035698;28;20041;-66
2023/09/08 01:15:00;;;;;;;20.30;13.38;;;;;;;-146.27;81.48;81004.38;5039486;28;20037;-67
2023/09/08 01:17:27;;;;;;;16.55;12.70;;;;;;;-146.27;81.53;80972.25;5045257;28;20111;-65
2023/09/08 01:19:59;;;;;;;16.38;12.73;;;;;;;-146.27;80.93;80946.13;5045195;28;20055;-66
2023/09/08 01:22:52;;;;;;;16.83;12.45;;;;;;;-146.27;80.13;80920.03;5042768;28;20028;-65
2023/09/08 01:25:21;;;;;;;16.83;12.60;;;;;;;-146.27;80.85;80952.16;5049226;28;20036;-66
2023/09/08 01:27:50;;;;;;;15.57;12.00;;;;;;;-146.27;80.37;80966.22;5048741;28;20039;-66
2023/09/08 01:30:17;;;;;;;22.60;12.88;;;;;;;-146.27;80.52;80962.22;5042822;28;20079;-66
2023/09/08 01:32:44;;;;;;;18.08;13.68;;;;;;;-146.27;80.59;81022.44;5038289;28;20035;-66
2023/09/08 01:35:11;;;;;;;17.65;13.20;;;;;;;-146.27;80.33;81012.41;5037859;28;20111;-66
2023/09/08 01:37:39;;;;;;;17.95;14.05;;;;;;;-146.27;80.81;81024.47;5059703;28;20449;-66
2023/09/08 01:40:05;;;;;;;18.70;13.88;;;;;;;-146.27;81.18;81080.69;5041307;28;20126;-65
2023/09/08 01:42:31;;;;;;;18.85;12.85;;;;;;;-146.27;82.08;81100.75;5042128;28;20440;-67
2023/09/08 01:44:56;;;;;;;17.08;13.38;;;;;;;-146.27;82.00;81213.22;5041054;28;20021;-66
2023/09/08 01:47:21;;;;;;;18.05;13.18;;;;;;;-146.27;82.00;81112.81;5039653;28;20040;-66
2023/09/08 01:49:47;;;;;;;18.17;12.77;;;;;;;-146.27;82.08;81130.88;5044172;28;20495;-65
2023/09/08 01:52:12;;;;;;;17.40;13.10;;;;;;;-146.27;82.47;81150.97;5047949;28;20519;-66
2023/09/08 01:54:37;;;;;;;18.88;13.57;;;;;;;-146.27;82.79;81159.00;5043794;28;20028;-66
2023/09/08 01:57:03;;;;;;;17.67;13.18;;;;;;;-146.27;81.96;81159.00;5048837;28;20029;-66
2023/09/08 01:59:28;;;;;;;17.20;13.93;;;;;;;-146.27;82.27;81118.84;5048557;28;20101;-66
2023/09/08 02:01:54;;;;;;;20.33;14.93;;;;;;;-146.27;82.15;81118.84;5049202;28;20025;-66
2023/09/08 02:04:19;;;;;;;25.10;15.18;;;;;;;-146.27;81.89;81159.00;5043148;28;20132;-66
2023/09/08 02:06:44;;;;;;;19.92;14.85;;;;;;;-146.27;82.20;81171.06;5045823;28;20021;-66
2023/09/08 02:09:13;;;;;;;18.63;14.18;;;;;;;-146.27;82.71;81173.06;5051506;28;20032;-65
2023/09/08 02:11:39;;;;;;;19.67;15.10;;;;;;;-146.27;82.26;81219.25;5035348;28;20033;-65
2023/09/08 02:14:04;;;;;;;18.17;15.38;;;;;;;-146.27;82.14;81134.91;5051252;28;20098;-67
2023/09/08 02:16:29;;;;;;;21.23;14.32;;;;;;;-146.27;83.01;81144.94;5049818;28;20048;-68
2023/09/08 02:18:55;;;;;;;23.15;16.05;;;;;;;-146.27;82.65;81203.19;5048899;28;20028;-68
2023/09/08 02:21:21;;;;;;;23.63;14.30;;;;;;;-146.27;82.47;81207.19;5034494;28;20061;-67
2023/09/08 02:23:46;;;;;;;20.20;16.13;;;;;;;-146.27;82.37;81205.19;5041129;28;20452;-67
2023/09/08 02:26:12;;;;;;;20.17;14.55;;;;;;;-146.27;83.27;81237.31;5044749;28;20100;-67
2023/09/08 02:28:37;;;;;;;19.30;14.60;;;;;;;-146.27;82.52;81201.19;5037297;28;20049;-68
2023/09/08 02:31:03;;;;;;;20.27;15.18;;;;;;;-146.27;82.92;81227.28;5038736;28;20056;-68
2023/09/08 02:33:28;;;;;;;21.60;15.43;;;;;;;-146.27;83.01;81167.03;5038528;28;20079;-67
2023/09/08 02:35:54;;;;;;;21.98;16.15;;;;;;;-146.27;82.11;81195.16;5038396;28;20404;-67
2023/09/08 02:38:19;;;;;;;20.05;14.60;;;;;;;-146.27;83.02;81207.19;5034695;28;20029;-67
2023/09/08 02:40:45;;;;;;;22.10;15.45;;;;;;;-146.27;82.65;81179.09;5045142;28;20086;-67
2023/09/08 02:43:10;;;;;;;22.65;17.10;;;;;;;-146.27;81.87;81146.97;5043136;28;20410;-67
2023/09/08 02:45:36;;;;;;;20.88;16.27;;;;;;;-146.27;82.08;81118.84;5038504;28;20052;-67
2023/09/08 02:48:01;;;;;;;21.45;15.90;;;;;;;-146.27;81.86;81169.03;5045724;28;20099;-67
2023/09/08 02:50:26;;;;;;;21.75;16.52;;;;;;;-146.27;81.73;81142.94;5042535;28;20029;-67
2023/09/08 02:52:52;;;;;;;22.63;16.33;;;;;;;-146.27;81.58;81159.00;5041962;28;20425;-67
2023/09/08 02:55:17;;;;;;;18.23;15.18;;;;;;;-146.27;81.70;81159.00;5050433;28;20029;-69
2023/09/08 02:57:43;;;;;;;20.98;14.90;;;;;;;-146.27;81.74;81146.97;5041878;28;20425;-67
2023/09/08 03:00:09;;;;;;;23.13;16.83;;;;;;;-146.27;82.18;81159.00;5042826;28;20485;-67
2023/09/08 03:02:34;;;;;;;19.33;15.40;;;;;;;-146.27;82.14;81175.06;5045548;28;20043;-67
2023/09/08 03:05:00;;;;;;;22.73;15.52;;;;;;;-146.27;81.88;81187.13;5043086;28;20072;-67
2023/09/08 03:07:27;;;;;;;24.33;15.52;;;;;;;-146.27;81.74;81165.03;5033677;28;20036;-67
2023/09/08 03:09:53;;;;;;;22.38;14.85;;;;;;;-146.27;81.86;81159.00;5043128;28;20036;-67
2023/09/08 03:12:18;;;;;;;24.70;15.02;;;;;;;-146.27;81.56;81211.22;5046518;28;20378;-67
2023/09/08 03:14:44;;;;;;;24.65;16.77;;;;;;;-146.27;82.20;81191.13;5039022;28;20056;-67
2023/09/08 03:17:10;;;;;;;20.45;15.88;;;;;;;-146.27;82.14;81203.19;5044520;28;20044;-67
2023/09/08 03:19:35;;;;;;;21.52;16.58;;;;;;;-146.27;81.79;81231.31;5037296;28;20028;-67
2023/09/08 03:22:01;;;;;;;21.70;16.25;;;;;;;-146.27;82.21;81209.22;5046572;28;20111;-70
2023/09/08 03:24:26;;;;;;;21.85;16.67;;;;;;;-146.27;82.39;81251.38;5039681;28;20596;-65
2023/09/08 03:26:51;;;;;;;19.38;17.05;;;;;;;-146.27;82.48;81267.44;5043455;28;20033;-67
2023/09/08 03:29:17;;;;;;;23.92;16.60;;;;;;;-146.27;82.60;81303.59;5046337;28;20057;-65
2023/09/08 03:31:43;;;;;;;22.48;16.75;;;;;;;-146.27;82.90;81331.72;5035381;28;20029;-65
2023/09/08 03:34:08;;;;;;;24.83;15.40;;;;;;;-146.27;83.65;81373.88;5034769;28;20474;-67
2023/09/08 03:36:36;;;;;;;28.17;15.93;;;;;;;-146.27;84.25;81375.91;5046213;28;20036;-66
2023/09/08 03:39:02;;;;;;;22.20;15.80;;;;;;;-146.27;83.91;81379.91;5054281;28;20062;-65
2023/09/08 03:41:28;;;;;;;23.65;16.65;;;;;;;-146.27;83.93;81383.94;5048615;28;20563;-66
2023/09/08 03:43:53;;;;;;;24.98;16.73;;;;;;;-146.27;83.58;81347.78;5048960;28;20059;-66
2023/09/08 03:46:19;;;;;;;24.67;16.00;;;;;;;-146.27;83.97;81345.78;5045897;28;20029;-66
2023/09/08 03:48:44;;;;;;;21.95;16.65;;;;;;;-146.27;84.30;81285.53;5049215;28;20021;-66
2023/09/08 03:51:09;;;;;;;21.98;15.98;;;;;;;-146.27;83.80;81265.44;5048816;28;20051;-67
2023/09/08 03:53:35;;;;;;;18.75;15.05;;;;;;;-146.27;82.74;81297.56;5053637;28;20035;-67
2023/09/08 03:56:00;;;;;;;25.45;15.70;;;;;;;-146.27;82.67;81269.47;5053495;28;20031;-66
2023/09/08 03:58:25;;;;;;;23.30;15.77;;;;;;;-146.27;82.36;81297.56;5047312;28;20045;-67
2023/09/08 04:00:51;;;;;;;24.58;15.18;;;;;;;-146.27;83.26;81315.66;5039282;28;20135;-67
2023/09/08 04:03:16;;;;;;;28.10;15.65;;;;;;;-146.27;82.63;81295.56;5038731;28;20021;-67
2023/09/08 04:05:42;;;;;;;19.30;15.13;;;;;;;-146.27;82.96;81251.38;5040106;28;20037;-68
2023/09/08 04:08:07;;;;;;;23.17;16.58;;;;;;;-146.27;83.07;81283.50;5042204;28;20520;-67
2023/09/08 04:10:33;;;;;;;26.27;16.05;;;;;;;-146.27;82.61;81267.44;5043763;28;20037;-67
2023/09/08 04:12:58;;;;;;;21.40;15.75;;;;;;;-146.27;82.55;81259.41;5046781;28;20064;-67
2023/09/08 04:15:23;;;;;;;18.98;14.95;;;;;;;-146.27;82.95;81255.41;5047192;28;20045;-66
2023/09/08 04:17:49;;;;;;;25.35;15.95;;;;;;;-146.27;82.44;81275.47;5042074;28;20107;-66
2023/09/08 04:20:15;;;;;;;20.90;14.65;;;;;;;-146.27;82.48;81215.22;5039502;28;20024;-67
2023/09/08 04:22:40;;;;;;;22.02;15.27;;;;;;;-146.27;81.51;81275.47;5040631;28;20040;-66
2023/09/08 04:25:06;;;;;;;18.83;15.23;;;;;;;-146.27;82.52;81271.47;5049634;28;20171;-66
2023/09/08 04:27:32;;;;;;;24.48;16.10;;;;;;;-146.27;82.34;81319.66;5036288;28;20098;-66
2023/09/08 04:29:59;;;;;;;21.13;15.48;;;;;;;-146.27;82.66;81339.75;5051403;28;20481;-66
2023/09/08 04:32:24;;;;;;;23.70;15.23;;;;;;;-146.27;82.90;81359.81;5051128;28;20049;-66
2023/09/08 04:34:50;;;;;;;25.50;16.52;;;;;;;-146.27;83.63;81391.97;5044040;28;20396;-68
2023/09/08 04:37:15;;;;;;;22.65;15.35;;;;;;;-146.27;83.68;81410.03;5051218;28;20024;-67
2023/09/08 04:39:41;;;;;;;19.00;14.98;;;;;;;-146.27;83.56;81385.94;5040370;28;20033;-68
2023/09/08 04:42:06;;;;;;;20.40;15.15;;;;;;;-146.27;83.45;81416.06;5040302;28;20031;-68
2023/09/08 04:44:32;;;;;;;20.98;15.23;;;;;;;-146.27;84.35;81373.88;5050257;28;20369;-68
2023/09/08 04:46:57;;;;;;;24.27;15.90;;;;;;;-146.27;83.46;81436.16;5051877;28;20059;-68
2023/09/08 04:49:22;;;;;;;23.10;15.00;;;;;;;-146.27;84.34;81428.09;5045787;28;20038;-67
2023/09/08 04:51:48;;;;;;;19.15;15.30;;;;;;;-146.27;83.79;81452.22;5042264;28;20477;-67
2023/09/08 04:54:13;;;;;;;20.95;15.85;;;;;;;-146.27;84.14;81480.31;5038100;28;20083;-66
2023/09/08 04:56:39;;;;;;;22.13;15.85;;;;;;;-146.27;83.88;81420.06;5040932;28;20020;-66
2023/09/08 04:59:05;;;;;;;21.38;16.13;;;;;;;-146.27;83.73;81464.25;5047632;28;20460;-67
2023/09/08 05:01:32;;;;;;;21.70;16.13;;;;;;;-146.27;84.01;81460.25;5036380;28;20098;-69
2023/09/08 05:03:59;;;;;;;23.83;15.05;;;;;;;-146.27;84.38;81422.09;5047156;28;20082;-66
2023/09/08 05:06:24;;;;;;;22.52;15.68;;;;;;;-146.27;83.69;81476.31;5041283;28;20042;-67
2023/09/08 05:08:50;;;;;;;21.88;15.32;;;;;;;-146.27;83.75;81466.28;5043181;28;20070;-68
2023/09/08 05:11:15;;;;;;;21.52;16.70;;;;;;;-146.27;83.84;81480.31;5048805;28;20028;-68
2023/09/08 05:13:41;;;;;;;21.35;16.05;;;;;;;-146.27;84.34;81432.13;5052115;28;20037;-68
2023/09/08 05:16:12;;;;;;;20.33;15.15;;;;;;;-146.27;83.99;81484.34;5046846;28;20021;-68
2023/09/08 05:18:38;;;;;;;25.67;16.73;;;;;;;-146.27;84.38;81488.38;5046361;28;20032;-68
2023/09/08 05:21:04;;;;;;;21.38;16.50;;;;;;;-146.27;85.24;81536.56;5051519;28;20456;-69
2023/09/08 05:23:29;;;;;;;19.20;15.48;;;;;;;-146.27;85.10;81508.44;5051928;28;20029;-69
2023/09/08 05:25:55;;;;;;;25.70;15.98;;;;;;;-146.27;85.22;81492.38;5048353;28;20029;-69
2023/09/08 05:28:20;;;;;;;21.38;15.95;;;;;;;-146.27;84.77;81454.22;5050980;28;20020;-68
2023/09/08 05:30:45;;;;;;;25.15;15.38;;;;;;;-146.27;83.91;81468.28;5044947;28;20112;-68
2023/09/08 05:33:11;;;;;;;26.25;17.15;;;;;;;-146.27;84.23;81490.38;5045227;28;20063;-68
2023/09/08 05:35:36;;;;;;;23.85;15.77;;;;;;;-146.27;84.67;81482.34;5032656;28;20025;-68
2023/09/08 05:38:02;;;;;;;21.98;15.70;;;;;;;-146.27;85.16;81520.50;5064508;28;20025;-68
2023/09/08 05:40:27;;;;;;;22.02;16.58;;;;;;;-146.27;85.42;81492.38;5048437;28;20036;-68
2023/09/08 05:42:53;;;;;;;21.70;15.65;;;;;;;-146.27;85.28;81464.25;5043505;28;20214;-68
2023/09/08 05:45:19;;;;;;;26.25;15.48;;;;;;;-146.27;84.56;81404.00;5044734;28;20061;-66
2023/09/08 05:47:44;;;;;;;23.75;16.25;;;;;;;-146.27;84.49;81395.97;5051820;28;20082;-69
2023/09/08 05:50:10;;;;;;;20.08;15.43;;;;;;;-146.27;83.88;81383.94;5048229;28;20021;-67
2023/09/08 05:52:36;;;;;;;26.35;16.48;;;;;;;-146.27;83.58;81387.94;5045916;28;20049;-68
2023/09/08 05:55:01;;;;;;;22.25;14.65;;;;;;;-146.27;83.58;81383.94;5032786;28;20049;-66
2023/09/08 05:57:26;;;;;;;20.20;15.02;;;;;;;-146.27;83.40;81311.63;5033184;28;20033;-67
2023/09/08 05:59:52;;;;;;;21.83;15.90;;;;;;;-146.27;82.91;81263.44;5049994;28;20029;-67
2023/09/08 06:02:17;;;;;;;24.60;15.63;;;;;;;-146.27;82.68;81271.47;5047859;28;20021;-66
2023/09/08 06:04:42;;;;;;;21.60;16.10;;;;;;;-146.27;82.33;81285.53;5051051;28;20345;-66
2023/09/08 06:07:08;;;;;;;21.65;15.73;;;;;;;-146.27;82.24;81269.47;5035697;28;20067;-66
2023/09/08 06:09:33;;;;;;;17.30;14.57;;;;;;;-146.27;82.86;81241.34;5050893;28;20112;-67
2023/09/08 06:11:59;;;;;;;27.45;16.20;;;;;;;-146.27;82.22;81247.38;5047370;28;20049;-66
2023/09/08 06:14:24;;;;;;;23.20;16.00;;;;;;;-146.27;82.03;81195.16;5041785;28;20049;-67
2023/09/08 06:16:49;;;;;;;27.88;17.20;;;;;;;-146.27;81.51;81199.16;5030978;28;20025;-67
2023/09/08 06:19:15;;;;;;;21.85;16.30;;;;;;;-146.27;82.11;81223.25;5041029;28;20028;-67
2023/09/08 06:21:40;;;;;;;21.95;16.75;;;;;;;-146.27;81.78;81203.19;5041622;28;20090;-66
2023/09/08 06:24:06;;;;;;;18.02;15.05;;;;;;;-146.27;82.33;81207.19;5034607;28;20057;-67
2023/09/08 06:26:31;;;;;;;21.52;15.75;;;;;;;-146.27;81.90;81187.13;5049777;28;20033;-66
2023/09/08 06:28:57;;;;;;;22.20;17.15;;;;;;;-146.27;82.44;81183.09;5050854;28;20024;-67
2023/09/08 06:31:22;;;;;;;21.20;15.80;;;;;;;-146.27;82.03;81163.03;5037656;28;20029;-69
2023/09/08 06:33:49;;;;;;;27.95;16.08;;;;;;;-146.27;82.03;81148.97;5035548;28;20112;-69
2023/09/08 06:36:15;;;;;;;18.65;14.70;;;;;;;-146.27;81.90;81144.94;5048521;28;20024;-68
2023/09/08 06:38:40;;;;;;;24.25;16.88;;;;;;;-146.27;81.54;81090.72;5050394;28;20400;-68
2023/09/08 06:41:12;;;;;;;20.58;15.10;;;;;;;-146.27;81.66;81046.53;5050730;28;20020;-68
2023/09/08 06:43:38;;;;;;;23.52;15.70;;;;;;;-146.27;81.30;81086.72;5048152;28;20033;-69
2023/09/08 06:46:04;;;;;;;21.70;15.80;;;;;;;-146.27;81.35;81070.66;5047283;28;20028;-68
2023/09/08 06:48:29;;;;;;;22.77;16.85;;;;;;;-146.27;81.29;81034.50;5050651;28;20100;-68
2023/09/08 06:50:56;;;;;;;19.13;14.52;;;;;;;-146.27;80.93;81026.47;5050800;28;20085;-68
2023/09/08 06:53:22;;;;;;;21.75;16.77;;;;;;;-146.27;80.69;80994.34;5038178;28;20085;-68
2023/09/08 06:55:48;;;;;;;24.33;15.40;;;;;;;-146.27;80.15;80986.31;5030801;28;20104;-68
2023/09/08 06:58:14;;;;;;;27.05;16.65;;;;;;;-146.27;80.51;80964.22;5030896;28;20156;-68
2023/09/08 07:00:40;;;;;;;26.15;16.52;;;;;;;-146.27;80.59;80946.13;5030791;28;20112;-68
2023/09/08 07:03:06;;;;;;;22.08;16.60;;;;;;;-146.27;81.11;80958.19;5039917;28;20147;-68
2023/09/08 07:05:32;;;;;;;27.75;16.45;;;;;;;-146.27;80.92;80938.09;5050491;28;20033;-68
2023/09/08 07:07:57;;;;;;;29.83;17.55;;;;;;;-146.27;81.03;80897.94;5047282;28;20070;-68
2023/09/08 07:10:22;;;;;;;26.92;17.85;;;;;;;-146.27;81.38;80899.97;5030394;28;20037;-69
2023/09/08 07:12:48;;;;;;;25.38;16.88;;;;;;;-146.27;80.93;80855.78;5033748;28;20025;-69
2023/09/08 07:15:13;;;;;;;23.00;16.73;;;;;;;-146.27;80.72;80857.78;5048555;28;20861;-68
2023/09/08 07:17:39;;;;;;;26.33;17.65;;;;;;;-146.27;80.42;80831.69;5047242;28;20396;-69
2023/09/08 07:20:05;;;;;;;22.40;15.82;;;;;;;-146.27;80.71;80817.63;5031323;28;20072;-69
2023/09/08 07:22:31;;;;;;;25.25;16.45;;;;;;;-146.27;80.56;80831.69;5043607;28;20021;-68
2023/09/08 07:24:56;;;;;;;21.63;16.70;;;;;;;-146.27;80.64;80797.53;5032402;28;20033;-69
2023/09/08 07:27:21;;;;;;;22.50;17.33;;;;;;;-146.27;80.51;80861.81;5030513;28;20029;-69
2023/09/08 07:29:48;;;;;;;23.60;17.10;;;;;;;-146.27;80.45;80765.41;5042299;28;20064;-68
2023/09/08 07:32:14;;;;;;;21.98;16.65;;;;;;;-146.27;80.38;80757.38;5038777;28;20108;-68
2023/09/08 07:34:39;;;;;;;22.88;17.10;;;;;;;-146.27;79.84;80777.47;5030099;28;20117;-69
2023/09/08 07:37:04;;;;;;;30.63;18.02;;;;;;;-146.27;79.94;80713.22;5030193;28;20469;-69
2023/09/08 07:39:30;;;;;;;22.00;16.88;;;;;;;-146.27;80.26;80711.19;5029919;28;20021;-69
2023/09/08 07:41:56;;;;;;;20.90;16.73;;;;;;;-146.27;79.99;80707.19;5029850;28;20052;-68
2023/09/08 07:44:21;;;;;;;23.00;17.45;;;;;;;-146.27;79.91;80646.94;5046926;28;20075;-67
2023/09/08 07:46:48;;;;;;;22.50;17.50;;;;;;;-146.27;80.04;80592.72;5048507;28;20025;-68
2023/09/08 07:49:14;;;;;;;19.83;15.80;;;;;;;-146.27;79.75;80592.72;5034066;28;20460;-68
2023/09/08 07:51:40;;;;;;;26.10;17.75;;;;;;;-146.27;79.83;80584.69;5049533;28;20055;-69
2023/09/08 07:54:06;;;;;;;24.58;18.33;;;;;;;-146.27;80.16;80562.63;5044983;28;20052;-69
2023/09/08 07:56:32;;;;;;;26.38;16.60;;;;;;;-146.27;79.89;80490.34;5035049;28;20017;-68
2023/09/08 07:58:58;;;;;;;26.38;16.40;;;;;;;-146.27;79.54;80408.00;5030247;28;20025;-68
2023/09/08 08:01:23;;;;;;;22.17;16.63;;;;;;;-146.27;79.69;80381.91;5034261;28;20024;-67
2023/09/08 08:03:49;;;;;;;19.08;15.85;;;;;;;-146.27;79.53;80327.69;5034210;28;20377;-72
2023/09/08 08:06:14;;;;;;;24.55;17.33;;;;;;;-146.27;79.33;80343.75;5048432;28;20025;-72
2023/09/08 08:08:40;;;;;;;21.52;15.75;;;;;;;-146.27;79.17;80309.63;5041562;28;22374;-70
2023/09/08 08:11:17;;;;;;;22.67;16.15;;;;;;;-146.27;78.77;80275.50;5029527;28;20147;-73
2023/09/08 08:13:43;;;;;;;20.80;16.08;;;;;;;-146.27;78.68;80241.38;5029379;28;20038;-73
2023/09/08 08:16:09;;;;;;;19.98;15.23;;;;;;;-146.27;78.75;80211.25;5043646;28;20017;-71
2023/09/08 08:18:34;;;;;;;19.98;15.38;;;;;;;-146.27;79.09;80134.97;5029591;28;20037;-71
2023/09/08 08:21:00;;;;;;;24.85;17.25;;;;;;;-146.27;78.82;80120.91;5041878;28;20116;-72
2023/09/08 08:23:25;;;;;;;21.88;17.92;;;;;;;-146.27;78.05;80082.75;5049453;28;20017;-71
2023/09/08 08:25:51;;;;;;;22.70;15.95;;;;;;;-146.27;78.00;80022.53;5047732;28;20021;-71
2023/09/08 08:28:16;;;;;;;19.77;14.07;;;;;;;-146.27;77.86;79986.41;5050486;28;20024;-71
2023/09/08 08:30:42;;;;;;;22.73;16.95;;;;;;;-146.27;77.74;79958.28;5049697;28;20480;-71
2023/09/08 08:33:07;;;;;;;23.73;16.65;;;;;;;-146.27;78.07;79898.06;5049243;28;20107;-70
2023/09/08 08:35:33;;;;;;;20.55;14.68;;;;;;;-146.27;77.77;79787.66;5047758;28;20028;-70
2023/09/08 08:37:59;;;;;;;24.50;15.75;;;;;;;-146.27;77.03;79789.66;5032545;28;20033;-70
2023/09/08 08:40:27;;;;;;;31.13;16.60;;;;;;;-146.27;76.90;79731.44;5033068;28;20084;-70
2023/09/08 08:42:58;;;;;;;22.27;14.35;;;;;;;-146.27;76.44;79669.22;5039948;28;20029;-71
2023/09/08 08:45:25;;;;;;;18.60;14.52;;;;;;;-146.27;75.58;79641.09;5033012;28;20025;-71
2023/09/08 08:47:51;;;;;;;22.90;15.00;;;;;;;-146.27;74.68;79611.00;5032959;28;20021;-71
2023/09/08 08:50:17;;;;;;;21.05;15.18;;;;;;;-146.27;73.84;79560.81;5036465;28;20040;-72
2023/09/08 08:52:43;;;;;;;17.20;12.70;;;;;;;-146.27;74.04;79460.44;5052692;28;20438;-71
2023/09/08 08:55:09;;;;;;;21.08;14.52;;;;;;;-146.27;73.56;79420.28;5044906;28;20036;-71
2023/09/08 08:57:38;;;;;;;21.90;16.85;;;;;;;-146.27;72.99;79400.22;5051704;28;20043;-71
2023/09/08 09:00:09;;;;;;;19.83;15.57;;;;;;;-146.27;73.30;79319.91;5054354;28;20041;-71
2023/09/08 09:02:36;;;;;;;19.52;14.25;;;;;;;-146.27;72.88;79283.78;5049662;28;20029;-70
2023/09/08 09:05:03;;;;;;;25.33;16.35;;;;;;;-146.27;72.56;79273.75;5046774;28;20029;-70
2023/09/08 09:07:28;;;;;;;20.00;14.07;;;;;;;-146.27;72.21;79175.41;5041292;28;20064;-71
2023/09/08 09:09:55;;;;;;;20.20;14.40;;;;;;;-146.27;72.96;79079.06;5036053;28;20026;-70
2023/09/08 09:12:22;;;;;;;21.65;15.80;;;;;;;-146.27;72.14;79046.94;5052354;28;20055;-71
2023/09/08 09:14:47;;;;;;;20.73;13.80;;;;;;;-146.27;71.44;78966.66;5047421;28;20036;-68
2023/09/08 09:17:14;;;;;;;18.13;11.55;;;;;;;-146.27;71.95;78914.47;5035002;28;20096;-67
2023/09/08 09:19:40;;;;;;;16.02;11.80;;;;;;;-146.27;70.46;78822.16;5045356;28;20128;-69
2023/09/08 09:22:05;;;;;;;20.98;13.60;;;;;;;-146.27;68.80;78786.03;5054526;28;20516;-68
2023/09/08 09:24:43;;;;;;;19.85;12.65;;;;;;;-146.27;69.39;78637.50;5051688;28;20082;-69
2023/09/08 09:27:10;;;;;;;16.85;11.55;;;;;;;-146.27;69.53;78587.34;5049091;28;20465;-68
2023/09/08 09:29:58;;;;;;;12.57;9.05;;;;;;;-146.27;68.88;78448.88;5039825;28;20477;-72
2023/09/08 09:32:24;;;;;;;15.52;11.40;;;;;;;-146.27;68.37;78398.69;5040987;28;20071;-70
2023/09/08 09:34:54;;;;;;;16.85;9.65;;;;;;;-146.27;68.31;78304.38;5052148;28;20064;-67
2023/09/08 09:37:20;;;;;;;21.80;12.13;;;;;;;-146.27;68.63;78212.06;5050182;28;20013;-68
2023/09/08 09:39:50;;;;;;;16.67;12.85;;;;;;;-146.27;68.37;78171.94;5051996;28;20059;-68
2023/09/08 09:42:16;;;;;;;17.20;12.40;;;;;;;-146.27;67.77;78083.63;5051128;28;20103;-68
2023/09/08 09:44:42;;;;;;;13.35;9.75;;;;;;;-146.27;65.92;78047.53;5042375;28;20045;-69
2023/09/08 09:47:09;;;;;;;15.73;11.55;;;;;;;-146.27;65.51;78005.38;5044545;28;20048;-67
2023/09/08 09:49:42;;;;;;;15.63;10.10;;;;;;;-146.27;64.41;77919.09;5031960;28;20037;-68
2023/09/08 09:52:08;;;;;;;12.88;8.95;;;;;;;-146.27;63.80;77828.81;5048050;28;20410;-67
2023/09/08 09:54:33;;;;;;;16.85;11.07;;;;;;;-146.27;63.47;77760.56;5039596;28;20028;-68
2023/09/08 09:56:59;;;;;;;18.08;9.38;;;;;;;-146.27;64.23;77620.13;5049830;28;20072;-68
2023/09/08 09:59:25;;;;;;;18.00;9.48;;;;;;;-146.27;64.01;77630.16;5046002;28;20541;-67
2023/09/08 10:01:51;;;;;;;20.73;10.30;;;;;;;-146.27;62.68;77499.75;5064485;28;20400;-67
2023/09/08 10:04:16;;;;;;;19.05;11.15;;;;;;;-146.27;62.71;77457.59;5040739;28;20026;-68
2023/09/08 10:06:43;;;;;;;12.93;8.40;;;;;;;-146.27;62.37;77353.28;5051248;28;20033;-67
2023/09/08 10:09:13;;;;;;;18.13;10.70;;;;;;;-146.27;60.94;77269.03;5037633;28;20033;-68
2023/09/08 10:11:51;;;;;;;10.30;8.90;;;;;;;-146.27;61.81;77152.66;5038972;28;20159;-68
2023/09/08 10:14:18;;;;;;;13.13;7.80;;;;;;;-146.27;63.68;77006.22;5050030;28;20404;-68
2023/09/08 10:16:45;;;;;;;12.13;10.20;;;;;;;-146.27;61.39;76964.09;5038692;28;20029;-67
2023/09/08 10:19:11;;;;;;;12.30;8.45;;;;;;;-146.27;58.93;76887.84;5043195;28;20021;-68
2023/09/08 10:21:41;;;;;;;13.75;8.55;;;;;;;-146.27;59.66;76759.47;5032707;28;20241;-69
2023/09/08 10:24:14;;;;;;;22.75;9.98;;;;;;;-146.27;57.41;76693.28;5031283;28;20465;-67
2023/09/08 10:26:43;;;;;;;11.13;6.55;;;;;;;-146.27;57.60;76564.88;5035340;28;20025;-68
2023/09/08 10:29:10;;;;;;;10.45;7.32;;;;;;;-146.27;56.52;76480.63;5044964;28;20040;-68
2023/09/08 10:31:36;;;;;;;13.27;7.53;;;;;;;-146.27;56.97;76290.09;5046150;28;20056;-68
2023/09/08 10:34:02;;;;;;;12.98;7.50;;;;;;;-146.27;55.33;76213.88;5047528;28;20033;-69
2023/09/08 10:36:28;;;;;;;11.07;7.93;;;;;;;-146.27;56.91;76001.28;5030990;28;20044;-69
2023/09/08 10:38:56;;;;;;;17.42;9.98;;;;;;;-146.27;54.04;75909.00;5030786;28;20448;-68
2023/09/08 10:41:21;;;;;;;13.80;7.55;;;;;;;-146.27;54.27;75921.06;5030921;28;20469;-68
2023/09/08 10:43:56;;;;;;;12.02;7.80;;;;;;;-146.27;52.75;75909.00;5030642;28;20036;-69
2023/09/08 10:46:26;;;;;;;11.80;8.18;;;;;;;-146.27;54.84;75722.50;5030536;28;20448;-67
2023/09/08 10:49:00;;;;;;;15.98;8.70;;;;;;;-146.27;52.31;75604.19;5030846;28;20098;-67
2023/09/08 10:51:26;;;;;;;9.48;5.63;;;;;;;-146.27;49.86;75431.72;5030769;28;20060;-68
2023/09/08 10:53:51;;;;;;;12.57;8.20;;;;;;;-146.27;51.46;75327.44;5030867;28;20497;-67
2023/09/08 10:56:18;;;;;;;14.05;8.35;;;;;;;-146.27;54.55;75303.38;5036019;28;20032;-67
2023/09/08 10:58:49;;;;;;;14.80;9.05;;;;;;;-146.27;55.57;75159.00;5040241;28;20544;-67